Map

Track Data

SID SEASON NUMBER BASIN SUBBASIN NAME ISO_TIME NATURE LAT LON WMO_WIND WMO_PRES WMO_AGENCY TRACK_TYPE DIST2LAND LANDFALL IFLAG USA_AGENCY USA_ATCF_ID USA_LAT USA_LON USA_RECORD USA_STATUS USA_WIND USA_PRES USA_SSHS USA_R34_NE USA_R34_SE USA_R34_SW USA_R34_NW USA_R50_NE USA_R50_SE USA_R50_SW USA_R50_NW USA_R64_NE USA_R64_SE USA_R64_SW USA_R64_NW USA_POCI USA_ROCI USA_RMW USA_EYE TOKYO_LAT TOKYO_LON TOKYO_GRADE TOKYO_WIND TOKYO_PRES TOKYO_R50_DIR TOKYO_R50_LONG TOKYO_R50_SHORT TOKYO_R30_DIR TOKYO_R30_LONG TOKYO_R30_SHORT TOKYO_LAND CMA_LAT CMA_LON CMA_CAT CMA_WIND CMA_PRES HKO_LAT HKO_LON HKO_CAT HKO_WIND HKO_PRES NEWDELHI_LAT NEWDELHI_LON NEWDELHI_GRADE NEWDELHI_WIND NEWDELHI_PRES NEWDELHI_CI NEWDELHI_DP NEWDELHI_POCI REUNION_LAT REUNION_LON REUNION_TYPE REUNION_WIND REUNION_PRES REUNION_TNUM REUNION_CI REUNION_RMW REUNION_R34_NE REUNION_R34_SE REUNION_R34_SW REUNION_R34_NW REUNION_R50_NE REUNION_R50_SE REUNION_R50_SW REUNION_R50_NW REUNION_R64_NE REUNION_R64_SE REUNION_R64_SW REUNION_R64_NW BOM_LAT BOM_LON BOM_TYPE BOM_WIND BOM_PRES BOM_TNUM BOM_CI BOM_RMW BOM_R34_NE BOM_R34_SE BOM_R34_SW BOM_R34_NW BOM_R50_NE BOM_R50_SE BOM_R50_SW BOM_R50_NW BOM_R64_NE BOM_R64_SE BOM_R64_SW BOM_R64_NW BOM_ROCI BOM_POCI BOM_EYE BOM_POS_METHOD BOM_PRES_METHOD NADI_LAT NADI_LON NADI_CAT NADI_WIND NADI_PRES WELLINGTON_LAT WELLINGTON_LON WELLINGTON_WIND WELLINGTON_PRES DS824_LAT DS824_LON DS824_STAGE DS824_WIND DS824_PRES TD9636_LAT TD9636_LON TD9636_STAGE TD9636_WIND TD9636_PRES TD9635_LAT TD9635_LON TD9635_WIND TD9635_PRES TD9635_ROCI NEUMANN_LAT NEUMANN_LON NEUMANN_CLASS NEUMANN_WIND NEUMANN_PRES MLC_LAT MLC_LON MLC_CLASS MLC_WIND MLC_PRES USA_GUST BOM_GUST BOM_GUST_PER REUNION_GUST REUNION_GUST_PER USA_SEAHGT USA_SEARAD_NE USA_SEARAD_SE USA_SEARAD_SW USA_SEARAD_NW STORM_SPEED STORM_DIR
1895112N11086 1895 8 NI BB NOT_NAMED 1895-04-22 00:00:00 TS 10.5000 85.9000 main 547 547 _________O____ -1 10.5000 85.9000 TC 64 2 27
1895112N11086 1895 8 NI BB NOT_NAMED 1895-04-22 03:00:00 TS 10.5933 85.9400 main 551 551 _________PO___ -1 10.6400 85.9600 TC 64 10.5000 85.9000 4 3 15
1895112N11086 1895 8 NI BB NOT_NAMED 1895-04-22 06:00:00 TS 10.7506 85.9737 main 571 571 _________OP___ -1 10.8000 86.0000 TC 64 10.6766 85.9343 4 3 5
1895112N11086 1895 8 NI BB NOT_NAMED 1895-04-22 09:00:00 TS 10.9325 85.9893 main 577 577 _________PP___ -1 10.9925 86.0075 TC 64 10.8525 85.9649 4 4 0
1895112N11086 1895 8 NI BB NOT_NAMED 1895-04-22 12:00:00 TS 11.1136 85.9940 main 588 588 _________OP___ -1 11.2000 86.0000 TC 64 11.0272 85.9881 4 4 0
1895112N11086 1895 8 NI BB NOT_NAMED 1895-04-22 15:00:00 TS 11.3038 86.0000 main 599 599 _________PO___ -1 11.4075 86.0000 TC 64 11.2000 86.0000 4 4 0
1895112N11086 1895 8 NI BB NOT_NAMED 1895-04-22 18:00:00 TS 11.4855 85.9996 main 612 612 _________OP___ -1 11.6000 86.0000 TC 64 11.3709 85.9991 4 3 358
1895112N11086 1895 8 NI BB NOT_NAMED 1895-04-22 21:00:00 TS 11.6462 85.9926 main 617 617 _________PP___ -1 11.7500 85.9925 TC 64 11.5425 85.9926 4 3 357
1895112N11086 1895 8 NI BB NOT_NAMED 1895-04-23 00:00:00 TS 11.8089 85.9949 main 629 629 _________OP___ -1 11.9000 86.0000 TC 64 11.7178 85.9898 4 4 6
1895112N11086 1895 8 NI BB NOT_NAMED 1895-04-23 03:00:00 TS 11.9963 86.0212 main 633 632 _________PO___ -1 12.0925 86.0425 TC 64 11.9000 86.0000 4 4 10
1895112N11086 1895 8 NI BB NOT_NAMED 1895-04-23 06:00:00 TS 12.2005 86.0658 main 640 623 _________OP___ -1 12.3000 86.1000 TC 64 12.1009 86.0315 4 4 12
1895112N11086 1895 8 NI BB NOT_NAMED 1895-04-23 09:00:00 TS 12.4075 86.1137 main 623 613 _________PP___ -1 12.5075 86.1500 TC 64 12.3075 86.0775 4 4 14
1895112N11086 1895 8 NI BB NOT_NAMED 1895-04-23 12:00:00 TS 12.6052 86.1673 main 613 597 _________OP___ -1 12.7000 86.2000 TC 64 12.5103 86.1347 4 4 16
1895112N11086 1895 8 NI BB NOT_NAMED 1895-04-23 15:00:00 TS 12.7787 86.2213 main 597 589 _________PO___ -1 12.8575 86.2425 TC 64 12.7000 86.2000 4 3 20
1895112N11086 1895 8 NI BB NOT_NAMED 1895-04-23 18:00:00 TS 12.9058 86.2739 main 597 589 _________OP___ -1 13.0000 86.3000 TC 64 12.8115 86.2479 4 3 27
1895112N11086 1895 8 NI BB NOT_NAMED 1895-04-23 21:00:00 TS 13.0075 86.3416 main 589 582 _________PP___ -1 13.0975 86.3776 TC 64 12.9174 86.3056 4 3 31
1895112N11086 1895 8 NI BB NOT_NAMED 1895-04-24 00:00:00 TS 13.1823 86.4428 main 582 576 _________OP___ -1 13.3000 86.5000 TC 64 13.0646 86.3855 4 6 25
1895112N11086 1895 8 NI BB NOT_NAMED 1895-04-24 03:00:00 TS 13.5275 86.5925 main 577 557 _________PO___ -1 13.7550 86.6849 TC 64 13.3000 86.5000 4 9 22
1895112N11086 1895 8 NI BB NOT_NAMED 1895-04-24 06:00:00 TS 14.0111 86.7818 main 557 525 _________OP___ -1 14.3000 86.9000 TC 64 13.7222 86.6635 4 11 21
1895112N11086 1895 8 NI BB NOT_NAMED 1895-04-24 09:00:00 TS 14.5075 86.9809 main 525 496 _________PP___ -1 14.7875 87.1000 TC 64 14.2276 86.8617 4 10 22
1895112N11086 1895 8 NI BB NOT_NAMED 1895-04-24 12:00:00 TS 14.9721 87.1896 main 495 478 _________OP___ -1 15.2000 87.3000 TC 64 14.7441 87.0791 4 9 26
1895112N11086 1895 8 NI BB NOT_NAMED 1895-04-24 15:00:00 TS 15.3437 87.4001 main 485 477 _________PO___ -1 15.4875 87.5001 TC 64 15.2000 87.3000 4 7 32
1895112N11086 1895 8 NI BB NOT_NAMED 1895-04-24 18:00:00 TS 15.5698 87.5765 main 477 477 _________OP___ -1 15.7000 87.7000 TC 64 15.4395 87.4529 4 5 39
1895112N11086 1895 8 NI BB NOT_NAMED 1895-04-24 21:00:00 TS 15.7370 87.7341 main 477 477 _________PP___ -1 15.8548 87.8555 TC 64 15.6192 87.6126 4 5 43
1895112N11086 1895 8 NI BB NOT_NAMED 1895-04-25 00:00:00 TS 15.9572 87.9580 main 477 460 _________OP___ -1 16.1000 88.1000 TC 64 15.8143 87.8159 4 8 43
1895112N11086 1895 8 NI BB NOT_NAMED 1895-04-25 03:00:00 TS 16.3451 88.3274 main 460 429 _________PO___ -1 16.5902 88.5548 TC 64 16.1000 88.1000 4 12 41
1895112N11086 1895 8 NI BB NOT_NAMED 1895-04-25 06:00:00 TS 16.8892 88.7945 main 429 414 _________OP___ -1 17.2000 89.1000 TC 64 16.5785 88.4891 4 15 39
1895112N11086 1895 8 NI BB NOT_NAMED 1895-04-25 09:00:00 TS 17.4724 89.2751 main 414 391 _________PP___ -1 17.7923 89.5854 TC 64 17.1525 88.9648 4 15 39
1895112N11086 1895 8 NI BB NOT_NAMED 1895-04-25 12:00:00 TS 18.0876 89.8041 main 391 300 _________OP___ -1 18.4000 90.1000 TC 64 17.7752 89.5083 4 16 40
1895112N11086 1895 8 NI BB NOT_NAMED 1895-04-25 15:00:00 TS 18.7074 90.3851 main 300 224 _________PO___ -1 19.0148 90.6703 TC 55 18.4000 90.1000 4 16 43
1895112N11086 1895 8 NI BB NOT_NAMED 1895-04-25 18:00:00 TS 19.2515 90.9699 main 210 133 _________OP___ -1 19.6000 91.3000 TC 47 18.9902 90.7223 4 16 47
1895112N11086 1895 8 NI BB NOT_NAMED 1895-04-25 21:00:00 TS 19.7762 91.6139 main 127 53 _________PP___ -1 20.1206 91.9842 TC 38 19.5467 91.3671 4 16 50
1895112N11086 1895 8 NI BB NOT_NAMED 1895-04-26 00:00:00 TS 20.2532 92.2522 main 38 0 _________OP___ -1 20.6000 92.7000 TC 30 20.0799 92.0283 4 13 51
1895112N11086 1895 8 NI BB NOT_NAMED 1895-04-26 03:00:00 NR 20.6000 92.7000 main 0 __________O___ -1 TC 20.6000 92.7000 1 11 50

About IBTrACS Database

This database is a web-friendly format of International Best Track Archive for Climate Stewardship (IBTrACS), a global best track data archive curated by NOAA dating back to 1842.

Updated: 2021-10-21